createdAt,value
2022-07-28T00:01:18.461Z,2.35
2022-07-28T00:03:48.969Z,1.70
2022-07-28T00:06:17.389Z,1.90
2022-07-28T00:08:45.365Z,2.00
2022-07-28T00:11:14.796Z,1.75
2022-07-28T00:13:42.870Z,2.08
2022-07-28T00:16:11.188Z,1.98
2022-07-28T00:18:39.222Z,1.88
2022-07-28T00:21:07.363Z,1.70
2022-07-28T00:23:38.533Z,1.70
2022-07-28T00:26:08.534Z,1.80
2022-07-28T00:28:38.402Z,1.75
2022-07-28T00:31:08.651Z,1.88
2022-07-28T00:33:40.163Z,1.80
2022-07-28T00:36:10.318Z,1.85
2022-07-28T00:38:43.938Z,1.90
2022-07-28T00:41:12.713Z,1.73
2022-07-28T00:43:44.444Z,1.60
2022-07-28T00:46:12.965Z,1.67
2022-07-28T00:48:43.938Z,2.28
2022-07-28T00:51:12.094Z,2.08
2022-07-28T00:53:40.780Z,1.85
2022-07-28T00:56:09.202Z,2.00
2022-07-28T00:58:38.887Z,1.83
2022-07-28T01:01:09.957Z,1.80
2022-07-28T01:03:40.882Z,2.20
2022-07-28T01:06:19.590Z,2.00
2022-07-28T01:08:59.079Z,1.90
2022-07-28T01:11:42.757Z,2.22
2022-07-28T01:14:19.697Z,1.73
2022-07-28T01:17:05.016Z,1.95
2022-07-28T01:19:41.963Z,2.00
2022-07-28T01:22:13.687Z,2.05
2022-07-28T01:24:50.583Z,2.30
2022-07-28T01:27:34.031Z,1.75
2022-07-28T01:30:13.169Z,1.80
2022-07-28T01:32:47.189Z,1.90
2022-07-28T01:35:20.752Z,2.33
2022-07-28T01:37:52.197Z,1.92
2022-07-28T01:40:24.176Z,2.20
2022-07-28T01:42:57.398Z,2.13
2022-07-28T01:45:27.230Z,2.15
2022-07-28T01:48:00.463Z,2.22
2022-07-28T01:50:29.366Z,2.28
2022-07-28T01:52:59.040Z,2.78
2022-07-28T01:55:28.934Z,2.60
2022-07-28T01:57:58.613Z,2.50
2022-07-28T02:00:29.092Z,2.15
2022-07-28T02:03:03.693Z,2.78
2022-07-28T02:05:32.839Z,2.80
2022-07-28T02:08:02.759Z,3.08
2022-07-28T02:10:31.987Z,3.10
2022-07-28T02:13:02.957Z,3.15
2022-07-28T02:15:32.768Z,3.65
2022-07-28T02:18:03.550Z,4.50
2022-07-28T02:20:32.064Z,6.15
2022-07-28T02:23:00.255Z,5.45
2022-07-28T02:25:30.770Z,4.93
2022-07-28T02:28:04.852Z,4.82
2022-07-28T02:30:38.609Z,4.35
2022-07-28T02:33:13.659Z,4.28
2022-07-28T02:35:48.882Z,5.22
2022-07-28T02:38:22.836Z,6.00
2022-07-28T02:40:53.548Z,6.70
2022-07-28T02:43:26.569Z,5.97
2022-07-28T02:46:19.059Z,5.25
2022-07-28T02:48:53.751Z,5.80
2022-07-28T02:51:24.898Z,5.57
2022-07-28T02:53:54.137Z,5.28
2022-07-28T02:56:23.816Z,4.22
2022-07-28T02:58:53.796Z,3.47
2022-07-28T03:01:22.977Z,3.30
2022-07-28T03:03:55.348Z,3.22
2022-07-28T03:06:28.363Z,3.80
2022-07-28T03:08:57.058Z,3.58
2022-07-28T03:11:25.247Z,3.28
2022-07-28T03:13:53.246Z,4.22
2022-07-28T03:16:21.394Z,3.97
2022-07-28T03:18:52.400Z,3.60
2022-07-28T03:21:20.514Z,3.78
2022-07-28T03:23:51.493Z,3.72
2022-07-28T03:26:26.708Z,3.58
2022-07-28T03:28:56.939Z,2.97
2022-07-28T03:31:26.834Z,3.38
2022-07-28T03:33:57.119Z,3.75
2022-07-28T03:36:39.925Z,4.18
2022-07-28T03:39:12.028Z,3.97
2022-07-28T03:41:43.136Z,3.85
2022-07-28T03:44:13.296Z,3.97
2022-07-28T03:46:45.546Z,3.47
2022-07-28T03:49:15.158Z,3.38
2022-07-28T03:51:43.241Z,3.90
2022-07-28T03:54:11.672Z,4.07
2022-07-28T03:56:40.108Z,4.72
2022-07-28T03:59:08.119Z,3.75
2022-07-28T04:01:36.074Z,3.80
2022-07-28T04:04:04.085Z,3.50
2022-07-28T04:06:33.732Z,3.53
2022-07-28T04:09:01.784Z,3.60
2022-07-28T04:11:29.837Z,3.42
2022-07-28T04:13:58.173Z,3.63
2022-07-28T04:16:26.260Z,3.13
2022-07-28T04:18:54.256Z,3.60
2022-07-28T04:21:22.949Z,3.25
2022-07-28T04:23:52.441Z,3.75
2022-07-28T04:26:20.417Z,4.07
2022-07-28T04:28:48.470Z,4.40
2022-07-28T04:31:16.591Z,4.30
2022-07-28T04:33:44.579Z,4.00
2022-07-28T04:36:12.798Z,4.22
2022-07-28T04:38:40.745Z,4.55
2022-07-28T04:41:10.431Z,4.28
2022-07-28T04:43:38.736Z,3.97
2022-07-28T04:46:06.775Z,3.70
2022-07-28T04:48:34.813Z,3.90
2022-07-28T04:51:02.892Z,3.83
2022-07-28T04:53:30.871Z,4.00
2022-07-28T04:55:58.798Z,3.45
2022-07-28T04:58:28.375Z,3.25
2022-07-28T05:00:58.992Z,3.20
2022-07-28T05:03:27.016Z,3.38
2022-07-28T05:05:55.219Z,3.10
2022-07-28T05:08:25.801Z,2.90
2022-07-28T05:10:55.970Z,3.30
2022-07-28T05:13:24.202Z,3.20
2022-07-28T05:15:53.805Z,3.45
2022-07-28T05:18:21.805Z,2.88
2022-07-28T05:20:49.828Z,2.92
2022-07-28T05:23:17.826Z,2.60
2022-07-28T05:25:46.021Z,2.85
2022-07-28T05:28:14.049Z,2.70
2022-07-28T05:30:42.056Z,2.40
2022-07-28T05:33:11.713Z,2.88
2022-07-28T05:35:39.676Z,2.80
2022-07-28T05:38:10.944Z,2.55
2022-07-28T05:40:39.454Z,2.20
2022-07-28T05:43:07.354Z,2.58
2022-07-28T05:45:35.402Z,2.40
2022-07-28T05:48:03.417Z,2.55
2022-07-28T05:50:32.940Z,2.63
2022-07-28T05:53:01.077Z,2.38
2022-07-28T05:55:29.420Z,2.33
2022-07-28T05:57:58.841Z,2.75
2022-07-28T06:00:27.206Z,2.35
2022-07-28T06:02:55.268Z,2.40
2022-07-28T06:05:24.207Z,2.30
2022-07-28T06:07:53.590Z,2.58
2022-07-28T06:10:24.751Z,2.60
2022-07-28T06:12:54.259Z,2.10
2022-07-28T06:15:24.385Z,2.40
2022-07-28T06:17:53.788Z,2.20
2022-07-28T06:20:23.089Z,2.33
2022-07-28T06:22:54.869Z,2.10
2022-07-28T06:25:24.237Z,2.20
2022-07-28T06:27:54.060Z,2.60
2022-07-28T06:30:24.469Z,2.10
2022-07-28T06:32:55.511Z,2.88
2022-07-28T06:35:24.075Z,2.40
2022-07-28T06:37:54.941Z,2.33
2022-07-28T06:40:23.197Z,2.40
2022-07-28T06:42:51.774Z,2.40
2022-07-28T06:45:21.362Z,2.20
2022-07-28T06:47:49.919Z,2.00
2022-07-28T06:50:24.811Z,2.13
2022-07-28T06:52:56.678Z,2.10
2022-07-28T06:55:24.895Z,2.10
2022-07-28T06:57:55.681Z,2.20
2022-07-28T07:00:23.767Z,2.13
2022-07-28T07:02:51.754Z,2.00
2022-07-28T07:05:19.778Z,2.17
2022-07-28T07:07:47.728Z,2.20
2022-07-28T07:10:17.216Z,2.10
2022-07-28T07:12:45.213Z,2.10
2022-07-28T07:15:13.697Z,2.35
2022-07-28T07:17:42.074Z,1.98
2022-07-28T07:20:13.386Z,1.73
2022-07-28T07:22:44.903Z,2.00
2022-07-28T07:25:14.660Z,1.77
2022-07-28T07:27:44.301Z,2.40
2022-07-28T07:30:15.381Z,1.92
2022-07-28T07:32:43.605Z,1.90
2022-07-28T07:35:12.404Z,2.22
2022-07-28T07:37:40.886Z,1.83
2022-07-28T07:40:10.601Z,2.10
2022-07-28T07:42:38.759Z,1.60
2022-07-28T07:45:10.183Z,1.77
2022-07-28T07:47:38.420Z,1.90
2022-07-28T07:50:07.414Z,1.70
2022-07-28T07:52:35.487Z,1.77
2022-07-28T07:55:04.795Z,1.80
2022-07-28T07:57:32.948Z,1.80
2022-07-28T08:00:01.083Z,1.80
2022-07-28T08:02:30.832Z,1.60
2022-07-28T08:04:58.964Z,1.67
2022-07-28T08:07:27.249Z,1.95
2022-07-28T08:09:55.170Z,1.70
2022-07-28T08:12:24.836Z,1.92
2022-07-28T08:14:53.404Z,2.35
2022-07-28T08:17:25.555Z,1.63
2022-07-28T08:19:55.975Z,1.33
2022-07-28T08:22:24.366Z,1.60
2022-07-28T08:24:52.596Z,1.95
2022-07-28T08:27:20.570Z,1.60
2022-07-28T08:29:48.640Z,1.35
2022-07-28T08:32:16.865Z,1.95
2022-07-28T08:34:45.094Z,1.60
2022-07-28T08:37:14.532Z,1.70
2022-07-28T08:39:42.519Z,1.52
2022-07-28T08:42:16.282Z,1.70
2022-07-28T08:44:51.526Z,1.70
2022-07-28T08:47:21.327Z,1.70
2022-07-28T08:49:50.524Z,1.90
2022-07-28T08:52:22.029Z,1.60
2022-07-28T08:54:52.113Z,1.77
2022-07-28T08:57:23.144Z,2.28
2022-07-28T08:59:52.491Z,1.55
2022-07-28T09:02:22.161Z,1.50
2022-07-28T09:04:50.990Z,1.40
2022-07-28T09:07:20.870Z,1.40
2022-07-28T09:09:50.207Z,1.60
2022-07-28T09:12:18.604Z,1.75
2022-07-28T09:14:47.259Z,1.55
2022-07-28T09:17:15.396Z,1.63
2022-07-28T09:19:43.366Z,1.38
2022-07-28T09:22:11.796Z,1.50
2022-07-28T09:24:44.634Z,1.50
2022-07-28T09:27:14.154Z,1.70
2022-07-28T09:29:45.632Z,2.50
2022-07-28T09:32:14.799Z,1.70
2022-07-28T09:34:44.209Z,1.52
2022-07-28T09:37:24.810Z,1.40
2022-07-28T09:39:59.314Z,1.60
2022-07-28T09:42:45.691Z,2.10
2022-07-28T09:45:23.061Z,1.90
2022-07-28T09:48:11.447Z,1.70
2022-07-28T09:50:40.766Z,1.67
2022-07-28T09:53:22.870Z,2.05
2022-07-28T09:55:58.422Z,1.77
2022-07-28T09:58:27.299Z,1.80
2022-07-28T10:01:07.122Z,2.20
2022-07-28T10:03:36.926Z,1.55
2022-07-28T10:06:09.201Z,1.92
2022-07-28T10:08:42.035Z,1.90
2022-07-28T10:11:12.701Z,1.58
2022-07-28T10:14:02.753Z,1.60
2022-07-28T10:16:32.066Z,1.65
2022-07-28T10:19:02.127Z,2.05
2022-07-28T10:21:34.840Z,2.13
2022-07-28T10:24:08.007Z,1.90
2022-07-28T10:26:40.186Z,1.50
2022-07-28T10:29:09.351Z,1.45
2022-07-28T10:31:45.618Z,1.42
2022-07-28T10:34:24.554Z,1.52
2022-07-28T10:36:55.401Z,1.40
2022-07-28T10:39:26.247Z,1.83
2022-07-28T10:41:57.049Z,1.60
2022-07-28T10:44:26.583Z,2.17
2022-07-28T10:46:55.785Z,1.50
2022-07-28T10:49:27.673Z,1.80
2022-07-28T10:52:08.939Z,1.45
2022-07-28T10:54:53.183Z,1.67
2022-07-28T10:57:23.711Z,1.65
2022-07-28T11:00:14.285Z,1.50
2022-07-28T11:02:55.199Z,1.67
2022-07-28T11:05:28.258Z,1.48
2022-07-28T11:07:57.068Z,1.60
2022-07-28T11:10:25.589Z,1.15
2022-07-28T11:12:56.506Z,1.50
2022-07-28T11:15:33.804Z,1.80
2022-07-28T11:18:05.706Z,1.60
2022-07-28T11:21:08.674Z,1.70
2022-07-28T11:23:47.915Z,1.50
2022-07-28T11:26:34.965Z,1.83
2022-07-28T11:29:17.465Z,1.83
2022-07-28T11:32:06.448Z,1.70
2022-07-28T11:35:19.461Z,1.60
2022-07-28T11:38:10.834Z,1.63
2022-07-28T11:40:41.309Z,1.35
2022-07-28T11:43:37.949Z,1.67
2022-07-28T11:46:25.297Z,1.55
2022-07-28T11:49:16.807Z,1.50
2022-07-28T11:52:09.783Z,1.60
2022-07-28T11:54:39.334Z,1.80
2022-07-28T11:57:09.825Z,1.58
2022-07-28T11:59:47.324Z,1.30
2022-07-28T12:02:21.315Z,1.70
2022-07-28T12:05:11.134Z,1.50
2022-07-28T12:07:42.372Z,1.40
2022-07-28T12:10:53.437Z,1.35
2022-07-28T12:13:16.832Z,1.50
2022-07-28T12:15:51.969Z,1.40
2022-07-28T12:18:21.529Z,1.40
2022-07-28T12:20:54.685Z,1.55
2022-07-28T12:23:45.568Z,1.40
2022-07-28T12:26:31.439Z,1.58
2022-07-28T12:29:00.960Z,1.60
2022-07-28T12:31:33.120Z,1.48
2022-07-28T12:34:05.817Z,1.60
2022-07-28T12:36:35.444Z,1.90
2022-07-28T12:39:06.386Z,1.70
2022-07-28T12:41:40.537Z,1.60
2022-07-28T12:44:08.962Z,1.85
2022-07-28T12:46:37.351Z,1.60
2022-07-28T12:49:20.267Z,1.80
2022-07-28T12:51:48.539Z,1.50
2022-07-28T12:54:17.439Z,1.75
2022-07-28T12:56:47.355Z,1.80
2022-07-28T12:59:15.652Z,1.80
2022-07-28T13:01:51.894Z,1.63
2022-07-28T13:04:45.204Z,2.45
2022-07-28T13:07:16.059Z,1.60
2022-07-28T13:09:59.984Z,1.75
2022-07-28T13:12:30.904Z,1.40
2022-07-28T13:15:00.867Z,1.45
2022-07-28T13:17:31.893Z,1.60
2022-07-28T13:20:10.188Z,1.45
2022-07-28T13:22:38.247Z,1.50
2022-07-28T13:25:07.334Z,1.40
2022-07-28T13:27:35.822Z,2.25
2022-07-28T13:30:04.109Z,1.48
2022-07-28T13:32:32.447Z,1.73
2022-07-28T13:35:00.503Z,1.70
2022-07-28T13:37:31.661Z,1.52
2022-07-28T13:40:00.752Z,1.50
2022-07-28T13:42:30.449Z,1.70
2022-07-28T13:44:58.572Z,1.33
2022-07-28T13:47:27.342Z,1.60
2022-07-28T13:50:04.127Z,1.63
2022-07-28T13:52:34.861Z,1.50
2022-07-28T13:55:07.052Z,1.40
2022-07-28T13:57:36.454Z,1.50
2022-07-28T14:00:07.635Z,1.67
2022-07-28T14:02:36.304Z,1.60
2022-07-28T14:05:05.294Z,1.52
2022-07-28T14:07:34.605Z,1.55
2022-07-28T14:10:02.938Z,1.77
2022-07-28T14:12:31.084Z,1.65
2022-07-28T14:14:59.303Z,1.60
2022-07-28T14:17:45.585Z,1.60
2022-07-28T14:20:14.858Z,2.13
2022-07-28T14:22:44.676Z,1.48
2022-07-28T14:25:20.722Z,1.55
2022-07-28T14:27:50.169Z,1.48
2022-07-28T14:30:19.345Z,1.60
2022-07-28T14:32:47.495Z,1.70
2022-07-28T14:35:15.549Z,1.35
2022-07-28T14:40:33.238Z,1.65
2022-07-28T14:43:07.643Z,1.65
2022-07-28T14:46:01.606Z,1.52
2022-07-28T14:48:24.069Z,1.33
2022-07-28T14:50:52.501Z,1.63
2022-07-28T14:53:22.285Z,1.58
2022-07-28T14:55:50.290Z,1.65
2022-07-28T14:58:18.304Z,1.58
2022-07-28T15:00:46.512Z,1.73
2022-07-28T15:03:14.678Z,1.50
2022-07-28T15:05:43.303Z,1.50
2022-07-28T15:08:11.503Z,1.50
2022-07-28T15:10:41.146Z,1.60
2022-07-28T15:13:09.166Z,1.40
2022-07-28T15:15:40.496Z,1.48
2022-07-28T15:18:12.665Z,1.60
2022-07-28T15:20:40.629Z,1.60
2022-07-28T15:23:10.385Z,1.50
2022-07-28T15:25:38.513Z,1.50
2022-07-28T15:28:08.050Z,1.67
2022-07-28T15:30:36.063Z,1.90
2022-07-28T15:33:11.766Z,1.63
2022-07-28T15:35:58.173Z,1.38
2022-07-28T15:38:27.579Z,1.42
2022-07-28T15:40:55.477Z,1.70
2022-07-28T15:43:25.028Z,1.60
2022-07-28T15:45:55.285Z,2.00
2022-07-28T15:48:23.531Z,1.60
2022-07-28T15:50:51.572Z,1.80
2022-07-28T15:53:19.774Z,1.50
2022-07-28T15:55:51.251Z,1.80
2022-07-28T15:58:20.499Z,1.60
2022-07-28T16:00:50.095Z,1.77
2022-07-28T16:03:18.929Z,1.73
2022-07-28T16:05:49.861Z,1.90
2022-07-28T16:08:22.737Z,1.55
2022-07-28T16:10:51.619Z,1.70
2022-07-28T16:13:35.711Z,1.60
2022-07-28T16:16:08.533Z,1.70
2022-07-28T16:18:38.665Z,1.70
2022-07-28T16:21:07.503Z,1.58
2022-07-28T16:23:36.035Z,1.55
2022-07-28T16:26:07.563Z,1.75
2022-07-28T16:28:35.745Z,1.60
2022-07-28T16:31:03.867Z,1.60
2022-07-28T16:33:34.063Z,1.92
2022-07-28T16:36:02.653Z,2.75
2022-07-28T16:38:30.818Z,1.90
2022-07-28T16:40:58.849Z,1.80
2022-07-28T16:43:26.861Z,2.38
2022-07-28T16:45:54.921Z,2.00
2022-07-28T16:48:22.940Z,1.80
2022-07-28T16:50:53.548Z,1.65
2022-07-28T16:53:21.514Z,1.58
2022-07-28T16:55:50.294Z,1.60
2022-07-28T16:58:22.240Z,1.70
2022-07-28T17:00:50.815Z,1.60
2022-07-28T17:03:18.881Z,1.52
2022-07-28T17:05:48.245Z,1.80
2022-07-28T17:08:17.696Z,1.60
2022-07-28T17:10:46.954Z,1.75
2022-07-28T17:13:16.556Z,1.55
2022-07-28T17:15:44.701Z,1.40
2022-07-28T17:18:14.453Z,1.70
2022-07-28T17:20:47.095Z,2.00
2022-07-28T17:23:18.757Z,2.00
2022-07-28T17:26:29.698Z,2.20
2022-07-28T17:28:36.869Z,1.45
2022-07-28T17:31:05.135Z,1.98
2022-07-28T17:33:34.462Z,1.60
2022-07-28T17:36:03.220Z,1.60
2022-07-28T17:38:33.530Z,1.65
2022-07-28T17:41:04.006Z,1.80
2022-07-28T17:43:32.831Z,2.28
2022-07-28T17:46:08.647Z,1.55
2022-07-28T17:48:39.839Z,1.60
2022-07-28T17:51:08.058Z,1.73
2022-07-28T17:53:39.317Z,1.70
2022-07-28T17:56:08.841Z,1.70
2022-07-28T17:58:37.597Z,1.95
2022-07-28T18:01:12.063Z,1.70
2022-07-28T18:03:59.303Z,1.90
2022-07-28T18:06:30.319Z,1.95
2022-07-28T18:09:05.220Z,1.90
2022-07-28T18:11:34.816Z,1.60
2022-07-28T18:14:05.497Z,1.60
2022-07-28T18:16:34.635Z,1.63
2022-07-28T18:19:03.041Z,1.70
2022-07-28T18:21:31.345Z,1.77
2022-07-28T18:24:00.813Z,1.67
2022-07-28T18:26:35.464Z,1.50
2022-07-28T18:29:03.581Z,2.08
2022-07-28T18:31:32.118Z,1.88
2022-07-28T18:34:00.320Z,1.75
2022-07-28T18:36:28.502Z,1.70
2022-07-28T18:38:57.179Z,1.98
2022-07-28T18:41:27.333Z,1.50
2022-07-28T18:44:03.531Z,1.67
2022-07-28T18:46:31.718Z,1.70
2022-07-28T18:48:59.719Z,1.65
2022-07-28T18:51:27.862Z,1.60
2022-07-28T18:53:57.473Z,1.63
2022-07-28T18:56:26.985Z,1.60
2022-07-28T18:58:56.116Z,1.60
2022-07-28T19:01:24.270Z,1.77
2022-07-28T19:03:52.446Z,1.50
2022-07-28T19:06:21.424Z,1.83
2022-07-28T19:08:49.561Z,1.67
2022-07-28T19:11:19.985Z,2.05
2022-07-28T19:13:50.066Z,1.80
2022-07-28T19:16:19.525Z,1.83
2022-07-28T19:18:47.623Z,1.60
2022-07-28T19:21:15.683Z,1.80
2022-07-28T19:23:43.798Z,1.70
2022-07-28T19:26:11.713Z,1.45
2022-07-28T19:28:39.759Z,1.80
2022-07-28T19:31:13.138Z,1.50
2022-07-28T19:33:43.875Z,1.60
2022-07-28T19:36:15.388Z,1.92
2022-07-28T19:38:52.840Z,1.60
2022-07-28T19:41:21.096Z,1.70
2022-07-28T19:43:49.109Z,1.35
2022-07-28T19:46:19.014Z,1.70
2022-07-28T19:48:49.663Z,1.50
2022-07-28T19:51:19.595Z,1.52
2022-07-28T19:53:48.329Z,1.70
2022-07-28T19:56:21.410Z,1.90
2022-07-28T19:58:56.975Z,1.70
2022-07-28T20:01:26.979Z,2.05
2022-07-28T20:04:00.967Z,1.90
2022-07-28T20:06:35.341Z,1.70
2022-07-28T20:09:05.163Z,1.77
2022-07-28T20:11:33.824Z,1.73
2022-07-28T20:14:04.676Z,1.77
2022-07-28T20:16:34.226Z,1.65
2022-07-28T20:19:02.671Z,1.85
2022-07-28T20:21:38.383Z,1.88
2022-07-28T20:24:08.113Z,2.13
2022-07-28T20:26:36.105Z,1.73
2022-07-28T20:29:05.861Z,1.63
2022-07-28T20:31:36.802Z,1.83
2022-07-28T20:34:06.967Z,1.67
2022-07-28T20:36:35.666Z,1.55
2022-07-28T20:39:21.004Z,1.52
2022-07-28T20:41:55.365Z,1.65
2022-07-28T20:44:30.701Z,1.52
2022-07-28T20:47:02.187Z,1.92
2022-07-28T20:49:30.583Z,1.70
2022-07-28T20:51:59.222Z,1.70
2022-07-28T20:54:27.536Z,1.90
2022-07-28T20:56:57.479Z,2.00
2022-07-28T20:59:27.902Z,2.25
2022-07-28T21:01:56.324Z,2.05
2022-07-28T21:04:26.478Z,1.70
2022-07-28T21:07:01.785Z,1.60
2022-07-28T21:09:30.638Z,2.00
2022-07-28T21:11:58.592Z,1.55
2022-07-28T21:14:26.831Z,1.42
2022-07-28T21:16:55.094Z,1.80
2022-07-28T21:19:23.145Z,1.90
2022-07-28T21:21:52.649Z,1.85
2022-07-28T21:24:20.662Z,1.50
2022-07-28T21:26:50.536Z,1.80
2022-07-28T21:32:02.089Z,1.70
2022-07-28T21:34:34.822Z,1.90
2022-07-28T21:37:04.654Z,1.77
2022-07-28T21:39:32.755Z,1.90
2022-07-28T21:42:01.225Z,1.92
2022-07-28T21:44:32.000Z,1.63
2022-07-28T21:46:59.994Z,2.25
2022-07-28T21:49:29.223Z,1.83
2022-07-28T21:51:57.207Z,1.70
2022-07-28T21:54:26.763Z,2.05
2022-07-28T21:56:55.056Z,1.80
2022-07-28T21:59:22.988Z,1.98
2022-07-28T22:01:51.070Z,1.80
2022-07-28T22:04:19.600Z,1.80
2022-07-28T22:06:47.890Z,1.70
2022-07-28T22:09:16.035Z,1.88
2022-07-28T22:11:45.566Z,1.70
2022-07-28T22:14:14.290Z,2.25
2022-07-28T22:16:42.404Z,1.80
2022-07-28T22:19:11.913Z,2.03
2022-07-28T22:21:40.151Z,1.85
2022-07-28T22:24:08.760Z,1.80
2022-07-28T22:26:36.693Z,1.90
2022-07-28T22:29:06.087Z,1.80
2022-07-28T22:31:34.095Z,1.63
2022-07-28T22:34:02.129Z,1.80
2022-07-28T22:36:30.348Z,1.77
2022-07-28T22:38:58.686Z,2.08
2022-07-28T22:41:27.037Z,1.90
2022-07-28T22:43:55.181Z,1.90
2022-07-28T22:46:24.629Z,1.90
2022-07-28T22:48:52.816Z,1.75
2022-07-28T22:51:20.926Z,2.20
2022-07-28T22:53:49.331Z,1.88
2022-07-28T22:56:21.018Z,1.75
2022-07-28T22:58:49.492Z,2.10
2022-07-28T23:01:17.588Z,1.90
2022-07-28T23:03:47.482Z,2.08
2022-07-28T23:06:15.717Z,1.83
2022-07-28T23:08:43.829Z,2.05
2022-07-28T23:11:11.904Z,1.77
2022-07-28T23:13:40.020Z,1.98
2022-07-28T23:16:09.230Z,1.90
2022-07-28T23:18:39.328Z,1.83
2022-07-28T23:21:09.123Z,2.20
2022-07-28T23:23:37.441Z,1.88
2022-07-28T23:26:05.723Z,2.10
2022-07-28T23:28:36.122Z,1.98
2022-07-28T23:31:04.248Z,1.95
2022-07-28T23:33:56.405Z,2.05
2022-07-28T23:36:26.898Z,1.80
2022-07-28T23:38:56.831Z,1.80
2022-07-28T23:41:25.207Z,2.20
2022-07-28T23:43:53.283Z,1.92
2022-07-28T23:46:21.517Z,1.85
2022-07-28T23:48:50.618Z,1.90
2022-07-28T23:51:18.670Z,2.10
2022-07-28T23:53:51.780Z,1.80
2022-07-28T23:56:22.463Z,1.77
2022-07-28T23:58:50.481Z,1.98
